SARF/FMA METAR and TAF weather

Enter ICAO airport designator
Station Type Date Time Source
SARF METAR 2019/06/27 10:00 UTC NOAA

SARF 271000Z 05003KT CAVOK 08/07 Q1014


Station Type Date Time Source
SARF Decoded METAR 2019/06/27 10:00 UTC NOAA

Formosa Aerodrome, Argentina (SARF) 26-12S 058-14W 60M
Jun 27, 2019 - 06:00 AM EDT / 2019.06.27 1000 UTC
Wind: from the NE (050 degrees) at 3 MPH (3 KT):0
Visibility: greater than 7 mile(s):0
Temperature: 46 F (8 C)
Dew Point: 44 F (7 C)
Relative Humidity: 93%
Pressure (altimeter): 29.94 in. Hg (1014 hPa)
ob: SARF 271000Z 05003KT CAVOK 08/07 Q1014
cycle: 10

Station Type Date Time Source
SARF TAF 2019/06/27 06:09 UTC NOAA

TAF SARF 270500Z 2706/2806 14005KT CAVOK TX22/2818Z TN08/2710Z
BECMG 2703/2705 PROB30 2709/2712 VRB03KT 4000 BR NSC
BECMG 2712/2714 09010KT
BECMG 2723/2801 9999 SCT020 BKN100 PROB30 2802/2806 7000 DZ BKN015

Example: see airport list